sensor_id;sensor_type;location;lat;lon;timestamp;temperature;humidity
25108;DHT22;13090;53.422;7.670;2023-02-26T00:01:51;3.70;65.90
25108;DHT22;13090;53.422;7.670;2023-02-26T00:06:54;3.60;66.00
25108;DHT22;13090;53.422;7.670;2023-02-26T00:12:02;3.60;66.00
25108;DHT22;13090;53.422;7.670;2023-02-26T00:17:24;3.60;66.10
25108;DHT22;13090;53.422;7.670;2023-02-26T00:22:27;3.50;66.20
25108;DHT22;13090;53.422;7.670;2023-02-26T00:27:30;3.50;66.30
25108;DHT22;13090;53.422;7.670;2023-02-26T00:32:35;3.50;66.40
25108;DHT22;13090;53.422;7.670;2023-02-26T00:37:59;3.40;66.50
25108;DHT22;13090;53.422;7.670;2023-02-26T00:43:03;3.40;66.60
25108;DHT22;13090;53.422;7.670;2023-02-26T00:53:43;3.30;66.70
25108;DHT22;13090;53.422;7.670;2023-02-26T00:58:47;3.30;66.80
25108;DHT22;13090;53.422;7.670;2023-02-26T01:03:51;3.30;66.80
25108;DHT22;13090;53.422;7.670;2023-02-26T01:08:58;3.30;66.90
25108;DHT22;13090;53.422;7.670;2023-02-26T01:14:04;3.20;66.90
25108;DHT22;13090;53.422;7.670;2023-02-26T01:19:15;3.20;67.10
25108;DHT22;13090;53.422;7.670;2023-02-26T01:24:20;3.20;67.30
25108;DHT22;13090;53.422;7.670;2023-02-26T01:29:24;3.20;67.30
25108;DHT22;13090;53.422;7.670;2023-02-26T01:34:34;3.10;67.30
25108;DHT22;13090;53.422;7.670;2023-02-26T01:39:42;3.10;67.50
25108;DHT22;13090;53.422;7.670;2023-02-26T01:44:54;3.10;67.60
25108;DHT22;13090;53.422;7.670;2023-02-26T01:50:09;3.00;67.70
25108;DHT22;13090;53.422;7.670;2023-02-26T01:55:12;3.00;67.80
25108;DHT22;13090;53.422;7.670;2023-02-26T02:00:16;3.00;67.70
25108;DHT22;13090;53.422;7.670;2023-02-26T02:05:23;2.90;67.80
25108;DHT22;13090;53.422;7.670;2023-02-26T02:10:27;2.90;68.00
25108;DHT22;13090;53.422;7.670;2023-02-26T02:15:35;2.80;67.90
25108;DHT22;13090;53.422;7.670;2023-02-26T02:21:21;2.80;68.10
25108;DHT22;13090;53.422;7.670;2023-02-26T02:26:43;2.80;69.50
25108;DHT22;13090;53.422;7.670;2023-02-26T02:31:55;2.70;68.60
25108;DHT22;13090;53.422;7.670;2023-02-26T02:37:01;2.70;68.50
25108;DHT22;13090;53.422;7.670;2023-02-26T02:42:07;2.70;68.60
25108;DHT22;13090;53.422;7.670;2023-02-26T02:47:20;2.60;68.60
25108;DHT22;13090;53.422;7.670;2023-02-26T02:52:28;2.70;68.80
25108;DHT22;13090;53.422;7.670;2023-02-26T02:57:34;2.60;68.90
25108;DHT22;13090;53.422;7.670;2023-02-26T03:02:46;2.60;69.00
25108;DHT22;13090;53.422;7.670;2023-02-26T03:07:53;2.60;69.20
25108;DHT22;13090;53.422;7.670;2023-02-26T03:12:56;2.60;69.20
25108;DHT22;13090;53.422;7.670;2023-02-26T03:18:05;2.60;69.20
25108;DHT22;13090;53.422;7.670;2023-02-26T03:23:21;2.60;69.50
25108;DHT22;13090;53.422;7.670;2023-02-26T03:28:28;2.60;69.60
25108;DHT22;13090;53.422;7.670;2023-02-26T03:33:39;2.60;70.10
25108;DHT22;13090;53.422;7.670;2023-02-26T03:38:48;2.50;69.70
25108;DHT22;13090;53.422;7.670;2023-02-26T03:43:53;2.50;69.70
25108;DHT22;13090;53.422;7.670;2023-02-26T03:49:00;2.50;69.90
25108;DHT22;13090;53.422;7.670;2023-02-26T03:54:11;2.50;69.40
25108;DHT22;13090;53.422;7.670;2023-02-26T03:59:16;2.50;69.70
25108;DHT22;13090;53.422;7.670;2023-02-26T04:04:24;2.40;69.80
25108;DHT22;13090;53.422;7.670;2023-02-26T04:09:27;2.40;70.10
25108;DHT22;13090;53.422;7.670;2023-02-26T04:14:30;2.30;70.10
25108;DHT22;13090;53.422;7.670;2023-02-26T04:19:33;2.30;70.20
25108;DHT22;13090;53.422;7.670;2023-02-26T04:24:36;2.30;70.40
25108;DHT22;13090;53.422;7.670;2023-02-26T04:29:38;2.30;70.40
25108;DHT22;13090;53.422;7.670;2023-02-26T04:34:42;2.20;70.50
25108;DHT22;13090;53.422;7.670;2023-02-26T04:39:44;2.20;70.70
25108;DHT22;13090;53.422;7.670;2023-02-26T04:44:46;2.20;70.70
25108;DHT22;13090;53.422;7.670;2023-02-26T04:49:49;2.20;70.80
25108;DHT22;13090;53.422;7.670;2023-02-26T04:54:51;2.20;70.90
25108;DHT22;13090;53.422;7.670;2023-02-26T04:59:54;2.10;70.80
25108;DHT22;13090;53.422;7.670;2023-02-26T05:04:57;2.20;70.90
25108;DHT22;13090;53.422;7.670;2023-02-26T05:09:59;2.20;70.90
25108;DHT22;13090;53.422;7.670;2023-02-26T05:15:02;2.10;70.80
25108;DHT22;13090;53.422;7.670;2023-02-26T05:20:06;2.20;70.80
25108;DHT22;13090;53.422;7.670;2023-02-26T05:25:10;2.20;70.70
25108;DHT22;13090;53.422;7.670;2023-02-26T05:30:14;2.20;70.60
25108;DHT22;13090;53.422;7.670;2023-02-26T05:35:18;2.10;70.50
25108;DHT22;13090;53.422;7.670;2023-02-26T05:40:21;2.20;70.50
25108;DHT22;13090;53.422;7.670;2023-02-26T05:45:23;2.10;70.60
25108;DHT22;13090;53.422;7.670;2023-02-26T05:50:27;2.10;70.60
25108;DHT22;13090;53.422;7.670;2023-02-26T05:55:29;2.10;70.60
25108;DHT22;13090;53.422;7.670;2023-02-26T06:00:31;2.10;70.50
25108;DHT22;13090;53.422;7.670;2023-02-26T06:05:35;2.00;70.50
25108;DHT22;13090;53.422;7.670;2023-02-26T06:10:37;2.00;70.70
25108;DHT22;13090;53.422;7.670;2023-02-26T06:15:39;2.00;70.70
25108;DHT22;13090;53.422;7.670;2023-02-26T06:20:43;2.00;70.70
25108;DHT22;13090;53.422;7.670;2023-02-26T06:25:45;2.00;70.80
25108;DHT22;13090;53.422;7.670;2023-02-26T06:30:47;2.00;70.90
25108;DHT22;13090;53.422;7.670;2023-02-26T06:35:51;2.10;71.20
25108;DHT22;13090;53.422;7.670;2023-02-26T06:40:53;2.30;72.00
25108;DHT22;13090;53.422;7.670;2023-02-26T06:45:56;2.80;72.60
25108;DHT22;13090;53.422;7.670;2023-02-26T06:51:00;3.30;72.70
25108;DHT22;13090;53.422;7.670;2023-02-26T06:56:03;3.80;71.80
25108;DHT22;13090;53.422;7.670;2023-02-26T07:01:05;4.00;70.80
25108;DHT22;13090;53.422;7.670;2023-02-26T07:06:10;4.20;70.40
25108;DHT22;13090;53.422;7.670;2023-02-26T07:11:28;4.60;71.70
25108;DHT22;13090;53.422;7.670;2023-02-26T07:16:30;5.60;72.90
25108;DHT22;13090;53.422;7.670;2023-02-26T07:21:34;6.80;73.10
25108;DHT22;13090;53.422;7.670;2023-02-26T07:26:36;8.10;71.70
25108;DHT22;13090;53.422;7.670;2023-02-26T07:31:38;8.90;69.20
25108;DHT22;13090;53.422;7.670;2023-02-26T07:36:42;9.50;67.90
25108;DHT22;13090;53.422;7.670;2023-02-26T07:41:44;10.30;67.90
25108;DHT22;13090;53.422;7.670;2023-02-26T07:46:46;11.20;68.00
25108;DHT22;13090;53.422;7.670;2023-02-26T07:51:50;12.30;67.00
25108;DHT22;13090;53.422;7.670;2023-02-26T07:56:53;13.30;65.00
25108;DHT22;13090;53.422;7.670;2023-02-26T08:01:55;14.20;64.00
25108;DHT22;13090;53.422;7.670;2023-02-26T08:06:59;15.00;62.20
25108;DHT22;13090;53.422;7.670;2023-02-26T08:12:01;15.80;60.10
25108;DHT22;13090;53.422;7.670;2023-02-26T08:17:03;16.50;59.40
25108;DHT22;13090;53.422;7.670;2023-02-26T08:22:07;17.10;58.30
25108;DHT22;13090;53.422;7.670;2023-02-26T08:27:09;17.70;57.10
25108;DHT22;13090;53.422;7.670;2023-02-26T08:32:15;18.20;56.50
25108;DHT22;13090;53.422;7.670;2023-02-26T08:37:19;18.70;54.90
25108;DHT22;13090;53.422;7.670;2023-02-26T08:42:21;18.90;53.40
25108;DHT22;13090;53.422;7.670;2023-02-26T08:47:23;19.10;53.50
25108;DHT22;13090;53.422;7.670;2023-02-26T08:52:31;19.40;52.90
25108;DHT22;13090;53.422;7.670;2023-02-26T08:57:33;19.60;52.30
25108;DHT22;13090;53.422;7.670;2023-02-26T09:02:35;19.70;50.10
25108;DHT22;13090;53.422;7.670;2023-02-26T09:07:44;19.70;50.50
25108;DHT22;13090;53.422;7.670;2023-02-26T09:12:48;19.80;49.90
25108;DHT22;13090;53.422;7.670;2023-02-26T09:17:50;20.00;48.60
25108;DHT22;13090;53.422;7.670;2023-02-26T09:22:53;19.80;47.20
25108;DHT22;13090;53.422;7.670;2023-02-26T09:27:55;19.50;47.40
25108;DHT22;13090;53.422;7.670;2023-02-26T09:32:59;19.10;45.20
25108;DHT22;13090;53.422;7.670;2023-02-26T09:38:03;18.70;45.40
25108;DHT22;13090;53.422;7.670;2023-02-26T09:43:17;18.40;44.30
25108;DHT22;13090;53.422;7.670;2023-02-26T09:48:23;18.00;44.80
25108;DHT22;13090;53.422;7.670;2023-02-26T09:53:31;17.60;45.10
25108;DHT22;13090;53.422;7.670;2023-02-26T09:58:37;17.40;46.30
25108;DHT22;13090;53.422;7.670;2023-02-26T10:03:53;17.10;46.10
25108;DHT22;13090;53.422;7.670;2023-02-26T10:09:15;16.50;45.50
25108;DHT22;13090;53.422;7.670;2023-02-26T10:14:27;16.20;46.60
25108;DHT22;13090;53.422;7.670;2023-02-26T10:19:34;16.30;48.00
25108;DHT22;13090;53.422;7.670;2023-02-26T10:24:42;16.60;48.10
25108;DHT22;13090;53.422;7.670;2023-02-26T10:29:52;16.60;47.50
25108;DHT22;13090;53.422;7.670;2023-02-26T10:34:59;16.70;43.40
25108;DHT22;13090;53.422;7.670;2023-02-26T10:40:10;16.60;45.40
25108;DHT22;13090;53.422;7.670;2023-02-26T10:45:26;16.40;45.30
25108;DHT22;13090;53.422;7.670;2023-02-26T10:50:30;16.30;45.30
25108;DHT22;13090;53.422;7.670;2023-02-26T10:55:38;16.40;47.00
25108;DHT22;13090;53.422;7.670;2023-02-26T11:00:43;16.70;47.10
25108;DHT22;13090;53.422;7.670;2023-02-26T11:05:49;16.90;45.00
25108;DHT22;13090;53.422;7.670;2023-02-26T11:11:00;17.10;44.90
25108;DHT22;13090;53.422;7.670;2023-02-26T11:16:17;17.20;44.60
25108;DHT22;13090;53.422;7.670;2023-02-26T11:21:21;17.10;42.20
25108;DHT22;13090;53.422;7.670;2023-02-26T11:26:33;16.90;44.20
25108;DHT22;13090;53.422;7.670;2023-02-26T11:31:38;17.10;44.80
25108;DHT22;13090;53.422;7.670;2023-02-26T11:36:44;17.00;44.70
25108;DHT22;13090;53.422;7.670;2023-02-26T11:41:49;16.90;45.00
25108;DHT22;13090;53.422;7.670;2023-02-26T11:46:54;16.80;44.00
25108;DHT22;13090;53.422;7.670;2023-02-26T11:52:14;16.80;45.30
25108;DHT22;13090;53.422;7.670;2023-02-26T11:57:22;16.80;45.30
25108;DHT22;13090;53.422;7.670;2023-02-26T12:02:30;16.80;43.30
25108;DHT22;13090;53.422;7.670;2023-02-26T12:07:33;16.50;44.70
25108;DHT22;13090;53.422;7.670;2023-02-26T12:12:46;16.60;45.00
25108;DHT22;13090;53.422;7.670;2023-02-26T12:18:11;16.90;44.80
25108;DHT22;13090;53.422;7.670;2023-02-26T12:23:34;17.30;44.10
25108;DHT22;13090;53.422;7.670;2023-02-26T12:29:09;17.50;41.80
25108;DHT22;13090;53.422;7.670;2023-02-26T12:34:33;17.60;43.70
25108;DHT22;13090;53.422;7.670;2023-02-26T12:39:48;17.90;43.50
25108;DHT22;13090;53.422;7.670;2023-02-26T12:45:10;17.70;43.70
25108;DHT22;13090;53.422;7.670;2023-02-26T12:50:27;17.80;43.80
25108;DHT22;13090;53.422;7.670;2023-02-26T12:55:38;17.90;43.30
25108;DHT22;13090;53.422;7.670;2023-02-26T13:12:08;18.10;43.80
25108;DHT22;13090;53.422;7.670;2023-02-26T13:17:21;18.20;43.90
25108;DHT22;13090;53.422;7.670;2023-02-26T13:22:29;18.20;43.60
25108;DHT22;13090;53.422;7.670;2023-02-26T13:27:34;18.30;44.20
25108;DHT22;13090;53.422;7.670;2023-02-26T13:32:39;18.40;43.40
25108;DHT22;13090;53.422;7.670;2023-02-26T13:37:46;18.00;43.00
25108;DHT22;13090;53.422;7.670;2023-02-26T13:43:01;17.60;43.30
25108;DHT22;13090;53.422;7.670;2023-02-26T13:48:20;17.40;43.30
25108;DHT22;13090;53.422;7.670;2023-02-26T13:53:50;17.10;42.90
25108;DHT22;13090;53.422;7.670;2023-02-26T13:58:54;16.70;42.10
25108;DHT22;13090;53.422;7.670;2023-02-26T14:04:23;16.10;43.30
25108;DHT22;13090;53.422;7.670;2023-02-26T14:09:44;15.70;43.40
25108;DHT22;13090;53.422;7.670;2023-02-26T14:15:19;15.30;44.00
25108;DHT22;13090;53.422;7.670;2023-02-26T14:20:31;15.00;44.00
25108;DHT22;13090;53.422;7.670;2023-02-26T14:25:37;14.80;44.80
25108;DHT22;13090;53.422;7.670;2023-02-26T14:30:45;14.50;44.80
25108;DHT22;13090;53.422;7.670;2023-02-26T14:35:51;14.20;44.90
25108;DHT22;13090;53.422;7.670;2023-02-26T14:41:04;13.90;45.00
25108;DHT22;13090;53.422;7.670;2023-02-26T14:46:08;13.60;45.10
25108;DHT22;13090;53.422;7.670;2023-02-26T14:51:21;13.40;45.50
25108;DHT22;13090;53.422;7.670;2023-02-26T14:56:33;13.10;45.60
25108;DHT22;13090;53.422;7.670;2023-02-26T15:01:45;13.00;45.80
25108;DHT22;13090;53.422;7.670;2023-02-26T15:12:39;12.60;46.30
25108;DHT22;13090;53.422;7.670;2023-02-26T15:23:36;12.30;46.90
25108;DHT22;13090;53.422;7.670;2023-02-26T15:28:40;12.10;47.00
25108;DHT22;13090;53.422;7.670;2023-02-26T15:33:42;11.80;47.00
25108;DHT22;13090;53.422;7.670;2023-02-26T15:38:48;11.70;47.30
25108;DHT22;13090;53.422;7.670;2023-02-26T15:43:55;11.50;47.50
25108;DHT22;13090;53.422;7.670;2023-02-26T15:49:01;11.30;47.70
25108;DHT22;13090;53.422;7.670;2023-02-26T15:54:05;11.10;47.90
25108;DHT22;13090;53.422;7.670;2023-02-26T15:59:11;11.00;48.10
25108;DHT22;13090;53.422;7.670;2023-02-26T16:04:16;10.80;48.30
25108;DHT22;13090;53.422;7.670;2023-02-26T16:09:26;10.60;48.40
25108;DHT22;13090;53.422;7.670;2023-02-26T16:14:32;10.40;48.60
25108;DHT22;13090;53.422;7.670;2023-02-26T16:19:39;10.20;48.90
25108;DHT22;13090;53.422;7.670;2023-02-26T16:24:45;10.10;49.20
25108;DHT22;13090;53.422;7.670;2023-02-26T16:29:51;10.00;49.50
25108;DHT22;13090;53.422;7.670;2023-02-26T16:34:55;9.80;49.60
25108;DHT22;13090;53.422;7.670;2023-02-26T16:40:11;9.80;49.70
25108;DHT22;13090;53.422;7.670;2023-02-26T16:45:27;9.60;50.00
25108;DHT22;13090;53.422;7.670;2023-02-26T16:50:43;9.50;50.20
25108;DHT22;13090;53.422;7.670;2023-02-26T16:55:56;9.40;50.10
25108;DHT22;13090;53.422;7.670;2023-02-26T17:01:05;9.30;50.50
25108;DHT22;13090;53.422;7.670;2023-02-26T17:06:11;9.20;50.60
25108;DHT22;13090;53.422;7.670;2023-02-26T17:11:22;9.10;50.80
25108;DHT22;13090;53.422;7.670;2023-02-26T17:16:26;8.90;51.00
25108;DHT22;13090;53.422;7.670;2023-02-26T17:21:28;8.80;51.00
25108;DHT22;13090;53.422;7.670;2023-02-26T17:26:33;8.70;51.20
25108;DHT22;13090;53.422;7.670;2023-02-26T17:31:35;8.70;51.30
25108;DHT22;13090;53.422;7.670;2023-02-26T17:36:37;8.60;51.40
25108;DHT22;13090;53.422;7.670;2023-02-26T17:41:43;8.50;51.50
25108;DHT22;13090;53.422;7.670;2023-02-26T17:46:45;8.30;51.70
25108;DHT22;13090;53.422;7.670;2023-02-26T17:51:47;8.20;51.80
25108;DHT22;13090;53.422;7.670;2023-02-26T17:56:51;8.00;52.00
25108;DHT22;13090;53.422;7.670;2023-02-26T18:01:53;7.90;52.30
25108;DHT22;13090;53.422;7.670;2023-02-26T18:06:56;7.80;52.50
25108;DHT22;13090;53.422;7.670;2023-02-26T18:11:59;7.70;52.70
25108;DHT22;13090;53.422;7.670;2023-02-26T18:17:01;7.50;52.90
25108;DHT22;13090;53.422;7.670;2023-02-26T18:22:04;7.40;53.00
25108;DHT22;13090;53.422;7.670;2023-02-26T18:27:12;7.30;53.90
25108;DHT22;13090;53.422;7.670;2023-02-26T18:32:16;7.20;53.70
25108;DHT22;13090;53.422;7.670;2023-02-26T18:37:21;7.00;53.80
25108;DHT22;13090;53.422;7.670;2023-02-26T18:42:27;6.90;54.10
25108;DHT22;13090;53.422;7.670;2023-02-26T18:47:30;6.90;54.30
25108;DHT22;13090;53.422;7.670;2023-02-26T18:52:33;6.90;54.50
25108;DHT22;13090;53.422;7.670;2023-02-26T18:57:37;6.90;55.40
25108;DHT22;13090;53.422;7.670;2023-02-26T19:02:39;6.90;54.90
25108;DHT22;13090;53.422;7.670;2023-02-26T19:07:42;6.90;55.00
25108;DHT22;13090;53.422;7.670;2023-02-26T19:12:48;6.90;55.00
25108;DHT22;13090;53.422;7.670;2023-02-26T19:17:51;6.80;55.40
25108;DHT22;13090;53.422;7.670;2023-02-26T19:22:53;6.70;55.20
25108;DHT22;13090;53.422;7.670;2023-02-26T19:27:58;6.60;55.30
25108;DHT22;13090;53.422;7.670;2023-02-26T19:33:01;6.60;55.60
25108;DHT22;13090;53.422;7.670;2023-02-26T19:38:04;6.50;55.50
25108;DHT22;13090;53.422;7.670;2023-02-26T19:43:08;6.40;55.60
25108;DHT22;13090;53.422;7.670;2023-02-26T19:48:11;6.30;55.90
25108;DHT22;13090;53.422;7.670;2023-02-26T19:53:13;6.10;55.80
25108;DHT22;13090;53.422;7.670;2023-02-26T19:58:17;6.00;56.00
25108;DHT22;13090;53.422;7.670;2023-02-26T20:03:19;5.90;56.30
25108;DHT22;13090;53.422;7.670;2023-02-26T20:08:25;5.80;56.30
25108;DHT22;13090;53.422;7.670;2023-02-26T20:13:29;5.70;56.70
25108;DHT22;13090;53.422;7.670;2023-02-26T20:18:32;5.60;56.70
25108;DHT22;13090;53.422;7.670;2023-02-26T20:23:37;5.50;56.80
25108;DHT22;13090;53.422;7.670;2023-02-26T20:28:43;5.40;57.00
25108;DHT22;13090;53.422;7.670;2023-02-26T20:33:45;5.30;57.40
25108;DHT22;13090;53.422;7.670;2023-02-26T20:38:47;5.20;57.30
25108;DHT22;13090;53.422;7.670;2023-02-26T20:43:52;5.10;57.40
25108;DHT22;13090;53.422;7.670;2023-02-26T20:48:55;5.10;57.80
25108;DHT22;13090;53.422;7.670;2023-02-26T20:53:57;5.00;57.90
25108;DHT22;13090;53.422;7.670;2023-02-26T20:59:01;4.90;57.90
25108;DHT22;13090;53.422;7.670;2023-02-26T21:04:06;4.80;58.10
25108;DHT22;13090;53.422;7.670;2023-02-26T21:09:09;4.80;58.30
25108;DHT22;13090;53.422;7.670;2023-02-26T21:14:13;4.70;58.30
25108;DHT22;13090;53.422;7.670;2023-02-26T21:19:15;4.60;58.60
25108;DHT22;13090;53.422;7.670;2023-02-26T21:24:17;4.50;58.60
25108;DHT22;13090;53.422;7.670;2023-02-26T21:29:21;4.50;58.90
25108;DHT22;13090;53.422;7.670;2023-02-26T21:34:24;4.40;59.30
25108;DHT22;13090;53.422;7.670;2023-02-26T21:39:35;4.40;59.40
25108;DHT22;13090;53.422;7.670;2023-02-26T21:44:39;4.40;59.40
25108;DHT22;13090;53.422;7.670;2023-02-26T21:49:42;4.30;59.60
25108;DHT22;13090;53.422;7.670;2023-02-26T21:54:45;4.30;59.70
25108;DHT22;13090;53.422;7.670;2023-02-26T21:59:48;4.20;59.60
25108;DHT22;13090;53.422;7.670;2023-02-26T22:04:51;4.20;59.90
25108;DHT22;13090;53.422;7.670;2023-02-26T22:09:53;4.10;59.90
25108;DHT22;13090;53.422;7.670;2023-02-26T22:14:56;4.10;60.10
25108;DHT22;13090;53.422;7.670;2023-02-26T22:19:58;4.00;60.40
25108;DHT22;13090;53.422;7.670;2023-02-26T22:25:01;3.90;60.40
25108;DHT22;13090;53.422;7.670;2023-02-26T22:30:06;3.80;60.50
25108;DHT22;13090;53.422;7.670;2023-02-26T22:35:09;3.80;61.50
25108;DHT22;13090;53.422;7.670;2023-02-26T22:40:13;3.70;60.80
25108;DHT22;13090;53.422;7.670;2023-02-26T22:45:17;3.70;61.20
25108;DHT22;13090;53.422;7.670;2023-02-26T22:50:19;3.60;61.30
25108;DHT22;13090;53.422;7.670;2023-02-26T22:55:21;3.60;61.40
25108;DHT22;13090;53.422;7.670;2023-02-26T23:05:50;3.50;61.90
25108;DHT22;13090;53.422;7.670;2023-02-26T23:10:53;3.40;61.80
25108;DHT22;13090;53.422;7.670;2023-02-26T23:15:56;3.30;61.80
25108;DHT22;13090;53.422;7.670;2023-02-26T23:21:00;3.20;62.20
25108;DHT22;13090;53.422;7.670;2023-02-26T23:26:03;3.20;62.60
25108;DHT22;13090;53.422;7.670;2023-02-26T23:31:05;3.10;62.60
25108;DHT22;13090;53.422;7.670;2023-02-26T23:36:09;3.00;62.70
25108;DHT22;13090;53.422;7.670;2023-02-26T23:41:11;3.00;63.30
25108;DHT22;13090;53.422;7.670;2023-02-26T23:46:13;2.90;63.20
25108;DHT22;13090;53.422;7.670;2023-02-26T23:51:17;2.90;63.40
25108;DHT22;13090;53.422;7.670;2023-02-26T23:56:22;2.80;63.60
